Alamo Heights, TX

9:16 AM CST on February 27, 2017 (GMT -0600)
Alamo Heights | | Change Station

Elev 761 ft 29.48 °N, 98.47 °W | Updated 26 seconds ago

Overcast
Overcast
69.3 °F
Feels Like 69.3 °F
N
3.2
Wind Variable Wind from ESE

Today
High -- | Low -- °F
--% Chance of Precip.
Yesterday
High -- | Low -- °F
Precip. -- in
Pressure 29.92 in
Visibility 7.0 miles
Clouds Overcast 1400 ft
Dew Point 64 °F
Humidity 83%
Rainfall 0.00 in
Snow Depth Not available.
7:01 AM 6:32 PM
New Moon, 1% visible
METAR KSAT 271451Z 13006KT 7SM OVC014 21/18 A2996 RMK AO2 SLP131 T02060178 53012
Pressure 29.92 in
Visibility 7.0 miles
Clouds Overcast 1400 ft
Dew Point 64 °F
Humidity 83%
Rainfall 0.00 in
Snow Depth Not available.
7:01 AM 6:32 PM
New Moon, 1% visible
METAR KSAT 271451Z 13006KT 7SM OVC014 21/18 A2996 RMK AO2 SLP131 T02060178 53012

Get Your Daily Forecast Email!

Thanks for signing up!

Be on the lookout for a verification email in your inbox.

You'll start receiving the daily forecast at 8 AM.

×

10-Day Weather Forecast

Almanac

Astronomy

Feb. 27, 2017 Rise Set
Actual Time
Civil Twilight
Nautical Twilight
Astronomical Twilight
Moon
Length of Visible Light
Length of Day
Tomorrow will be .
, % of the Moon is Illuminated

Today's Extremes

State Highs State Lows

Community

WunderPhotos

Upload Photos

1,962,540 photos uploaded!

WunderBlog® & News

Nearby

Air Quality

  Air Quality AQ Index Pollutant
Not available.

Snow Depth

Station Depth Elevation

Earthquake Activity

City Distance Mag. Time & Date
Minimum magnitude displayed is 2.5.

Coastal Water Temperatures

Place Temperature

Stations

Nearby Weather Stations

Station Location Temp. Windchill Dew Point Humidity Wind Precip. Elev Updated Type
                   

Watches & Warnings

There are currently no watches in effect.